RYR85YB EGBB-LERS
Flight info
| Callsign | RYR85YB |
|---|---|
| Flight time | 1h 50m |
| Altitude | 39000 |
| Route | ADMEX Y321 CPT UN859 SOPIL DCT BALAN DCT EVPOK DCT NARAK DCT GAI DCT LOMRA DCT ROCAN DCT PUMAL/N0360F230 N31 BERGA |
| Aircraft | B38M/M-SADE3FGILRWY/SB1 |
Departure
| Time | 2026-04-27 09:41 |
|---|---|
| Airport | Birmingham Airport (EGBB) |
Arrival
| Time | 2026-04-27 11:31 |
|---|---|
| Airport | Reus Airport (LERS) |
| Time | Latitude | Longitude | Altitude | Speed | Heading |
|---|---|---|---|---|---|
| 2026-04-27 09:15 | 52.45176 | -1.73745 | 325 ft | 0 kts | 326° |
| 2026-04-27 09:32 | 52.45169 | -1.73738 | 326 ft | 4 kts | 326° |
| 2026-04-27 09:32 | 52.45150 | -1.73717 | 322 ft | 3 kts | 324° |
| 2026-04-27 09:32 | 52.45132 | -1.73687 | 324 ft | 4 kts | 291° |
| 2026-04-27 09:32 | 52.45132 | -1.73648 | 324 ft | 4 kts | 246° |
| 2026-04-27 09:33 | 52.45137 | -1.73632 | 324 ft | 4 kts | 236° |
| 2026-04-27 09:33 | 52.45127 | -1.73656 | 323 ft | 4 kts | 236° |
| 2026-04-27 09:33 | 52.45124 | -1.73664 | 323 ft | 0 kts | 236° |
| 2026-04-27 09:36 | 52.45121 | -1.73671 | 323 ft | 2 kts | 236° |
| 2026-04-27 09:37 | 52.45104 | -1.73710 | 324 ft | 6 kts | 231° |
| 2026-04-27 09:37 | 52.45045 | -1.73747 | 326 ft | 12 kts | 174° |
| 2026-04-27 09:37 | 52.44967 | -1.73670 | 326 ft | 14 kts | 145° |
| 2026-04-27 09:37 | 52.44871 | -1.73662 | 325 ft | 15 kts | 197° |
| 2026-04-27 09:38 | 52.44762 | -1.73716 | 326 ft | 17 kts | 198° |
| 2026-04-27 09:38 | 52.44654 | -1.73665 | 324 ft | 18 kts | 145° |
| 2026-04-27 09:38 | 52.44549 | -1.73547 | 326 ft | 14 kts | 146° |
| 2026-04-27 09:38 | 52.44474 | -1.73465 | 326 ft | 12 kts | 146° |
| 2026-04-27 09:39 | 52.44411 | -1.73406 | 325 ft | 10 kts | 169° |
| 2026-04-27 09:39 | 52.44366 | -1.73440 | 325 ft | 2 kts | 235° |
| 2026-04-27 09:39 | 52.44364 | -1.73446 | 323 ft | 2 kts | 236° |
| 2026-04-27 09:39 | 52.44331 | -1.73524 | 326 ft | 15 kts | 236° |
| 2026-04-27 09:40 | 52.44376 | -1.73679 | 327 ft | 41 kts | 326° |
| 2026-04-27 09:40 | 52.44819 | -1.74173 | 326 ft | 111 kts | 326° |
| 2026-04-27 09:40 | 52.45622 | -1.75065 | 329 ft | 166 kts | 326° |
| 2026-04-27 09:40 | 52.46642 | -1.76197 | 785 ft | 183 kts | 326° |
| 2026-04-27 09:41 | 52.47689 | -1.77342 | 1664 ft | 179 kts | 326° |
| 2026-04-27 09:41 | 52.48775 | -1.78569 | 2281 ft | 191 kts | 325° |
| 2026-04-27 09:41 | 52.49999 | -1.79508 | 2980 ft | 207 kts | 352° |
| 2026-04-27 09:41 | 52.51432 | -1.79241 | 3788 ft | 210 kts | 14° |
| 2026-04-27 09:42 | 52.52775 | -1.78104 | 4441 ft | 229 kts | 41° |
| 2026-04-27 09:42 | 52.53649 | -1.75876 | 5195 ft | 239 kts | 72° |
| 2026-04-27 09:42 | 52.53737 | -1.73139 | 5653 ft | 248 kts | 102° |
| 2026-04-27 09:42 | 52.53349 | -1.70380 | 6545 ft | 247 kts | 101° |
| 2026-04-27 09:43 | 52.52862 | -1.67629 | 7235 ft | 260 kts | 118° |
| 2026-04-27 09:43 | 52.51707 | -1.65290 | 7737 ft | 277 kts | 136° |
| 2026-04-27 09:43 | 52.50290 | -1.62955 | 8373 ft | 290 kts | 135° |
| 2026-04-27 09:43 | 52.48867 | -1.60614 | 9319 ft | 291 kts | 135° |
| 2026-04-27 09:44 | 52.47434 | -1.58273 | 10136 ft | 297 kts | 135° |
| 2026-04-27 09:44 | 52.45910 | -1.55932 | 10811 ft | 308 kts | 143° |
| 2026-04-27 09:44 | 52.44038 | -1.54022 | 11237 ft | 325 kts | 150° |
| 2026-04-27 09:44 | 52.42051 | -1.52093 | 11793 ft | 337 kts | 149° |
| 2026-04-27 09:45 | 52.40037 | -1.50121 | 12642 ft | 339 kts | 149° |
| 2026-04-27 09:45 | 52.37996 | -1.48118 | 13424 ft | 344 kts | 149° |
| 2026-04-27 09:45 | 52.35857 | -1.46331 | 14195 ft | 347 kts | 164° |
| 2026-04-27 09:45 | 52.33485 | -1.45555 | 14898 ft | 350 kts | 171° |
| 2026-04-27 09:46 | 52.31070 | -1.44842 | 15590 ft | 355 kts | 171° |
| 2026-04-27 09:46 | 52.28624 | -1.44132 | 16315 ft | 359 kts | 171° |
| 2026-04-27 09:46 | 52.26149 | -1.43423 | 16997 ft | 363 kts | 171° |
| 2026-04-27 09:46 | 52.23653 | -1.42713 | 17700 ft | 367 kts | 171° |
| 2026-04-27 09:47 | 52.21124 | -1.41997 | 18363 ft | 371 kts | 171° |
| 2026-04-27 09:47 | 52.18568 | -1.41274 | 18954 ft | 375 kts | 171° |
| 2026-04-27 09:47 | 52.15972 | -1.40542 | 19216 ft | 379 kts | 171° |
| 2026-04-27 09:47 | 52.13380 | -1.39810 | 19290 ft | 378 kts | 171° |
| 2026-04-27 09:48 | 52.10800 | -1.38891 | 19714 ft | 380 kts | 161° |
| 2026-04-27 09:48 | 52.08307 | -1.37455 | 20324 ft | 382 kts | 161° |
| 2026-04-27 09:48 | 52.05767 | -1.36079 | 20844 ft | 386 kts | 162° |
| 2026-04-27 09:48 | 52.03204 | -1.34723 | 21399 ft | 389 kts | 162° |
| 2026-04-27 09:49 | 52.00621 | -1.33377 | 21999 ft | 391 kts | 162° |
| 2026-04-27 09:49 | 51.98022 | -1.32036 | 22566 ft | 394 kts | 162° |
| 2026-04-27 09:49 | 51.95401 | -1.30687 | 23112 ft | 397 kts | 163° |
| 2026-04-27 09:49 | 51.92760 | -1.29332 | 23656 ft | 400 kts | 163° |
| 2026-04-27 09:50 | 51.90094 | -1.27965 | 24152 ft | 403 kts | 163° |
| 2026-04-27 09:50 | 51.87408 | -1.26590 | 24627 ft | 406 kts | 163° |
| 2026-04-27 09:50 | 51.84712 | -1.25212 | 25112 ft | 408 kts | 163° |
| 2026-04-27 09:50 | 51.82005 | -1.23830 | 25573 ft | 410 kts | 163° |
| 2026-04-27 09:51 | 51.79278 | -1.22439 | 26041 ft | 412 kts | 163° |
| 2026-04-27 09:51 | 51.76542 | -1.21046 | 26577 ft | 412 kts | 164° |
| 2026-04-27 09:51 | 51.73801 | -1.19651 | 27038 ft | 414 kts | 164° |
| 2026-04-27 09:51 | 51.71048 | -1.18253 | 27471 ft | 416 kts | 164° |
| 2026-04-27 09:52 | 51.68279 | -1.16848 | 27910 ft | 418 kts | 164° |
| 2026-04-27 09:52 | 51.65491 | -1.15435 | 28338 ft | 421 kts | 164° |
| 2026-04-27 09:52 | 51.62696 | -1.14021 | 28759 ft | 423 kts | 164° |
| 2026-04-27 09:52 | 51.59882 | -1.12599 | 29177 ft | 425 kts | 165° |
| 2026-04-27 09:53 | 51.57085 | -1.11023 | 29564 ft | 429 kts | 156° |
| 2026-04-27 09:53 | 51.54454 | -1.08721 | 30015 ft | 430 kts | 155° |
| 2026-04-27 09:53 | 51.51784 | -1.06555 | 30390 ft | 432 kts | 156° |
| 2026-04-27 09:53 | 51.49116 | -1.04441 | 30703 ft | 434 kts | 156° |
| 2026-04-27 09:54 | 51.46394 | -1.02312 | 31017 ft | 436 kts | 157° |
| 2026-04-27 09:54 | 51.43658 | -1.00189 | 31323 ft | 439 kts | 157° |
| 2026-04-27 09:54 | 51.40904 | -0.98058 | 31625 ft | 441 kts | 157° |
| 2026-04-27 09:54 | 51.38135 | -0.95919 | 31923 ft | 443 kts | 157° |
| 2026-04-27 09:55 | 51.35351 | -0.93772 | 32231 ft | 445 kts | 158° |
| 2026-04-27 09:55 | 51.32555 | -0.91618 | 32551 ft | 447 kts | 158° |
| 2026-04-27 09:55 | 51.26948 | -0.87309 | 33235 ft | 448 kts | 158° |
| 2026-04-27 09:56 | 51.24128 | -0.85145 | 33510 ft | 451 kts | 158° |
| 2026-04-27 09:56 | 51.21297 | -0.82976 | 33829 ft | 451 kts | 158° |
| 2026-04-27 09:56 | 51.18469 | -0.80812 | 34234 ft | 450 kts | 158° |
| 2026-04-27 09:56 | 51.15649 | -0.78658 | 34573 ft | 450 kts | 158° |
| 2026-04-27 09:57 | 51.12824 | -0.76502 | 34858 ft | 450 kts | 158° |
| 2026-04-27 09:57 | 51.09982 | -0.74409 | 35132 ft | 449 kts | 162° |
| 2026-04-27 09:57 | 51.07053 | -0.72703 | 35409 ft | 449 kts | 163° |
| 2026-04-27 09:57 | 51.04128 | -0.70952 | 35667 ft | 450 kts | 162° |
| 2026-04-27 09:58 | 51.01203 | -0.69175 | 35932 ft | 451 kts | 162° |
| 2026-04-27 09:58 | 50.98282 | -0.67390 | 36177 ft | 451 kts | 162° |
| 2026-04-27 09:58 | 50.95342 | -0.65591 | 36439 ft | 452 kts | 162° |
| 2026-04-27 09:58 | 50.92413 | -0.63801 | 36673 ft | 452 kts | 162° |
| 2026-04-27 09:59 | 50.89469 | -0.62003 | 36916 ft | 453 kts | 162° |
| 2026-04-27 09:59 | 50.86525 | -0.60208 | 37147 ft | 453 kts | 162° |
| 2026-04-27 09:59 | 50.83590 | -0.58421 | 37460 ft | 452 kts | 162° |
| 2026-04-27 09:59 | 50.80652 | -0.56634 | 37713 ft | 452 kts | 161° |
| 2026-04-27 10:00 | 50.77721 | -0.54853 | 37917 ft | 452 kts | 161° |
| 2026-04-27 10:00 | 50.74781 | -0.53071 | 38123 ft | 453 kts | 161° |
| 2026-04-27 10:00 | 50.71836 | -0.51287 | 38324 ft | 453 kts | 161° |
| 2026-04-27 10:00 | 50.68929 | -0.49528 | 38520 ft | 454 kts | 161° |
| 2026-04-27 10:01 | 50.65981 | -0.47747 | 38716 ft | 454 kts | 161° |
| 2026-04-27 10:01 | 50.62988 | -0.45943 | 38917 ft | 454 kts | 161° |
| 2026-04-27 10:01 | 50.60086 | -0.44194 | 39140 ft | 452 kts | 161° |
| 2026-04-27 10:01 | 50.57147 | -0.42426 | 39282 ft | 452 kts | 161° |
| 2026-04-27 10:02 | 50.51258 | -0.38890 | 39305 ft | 452 kts | 161° |
| 2026-04-27 10:02 | 50.45383 | -0.35372 | 39304 ft | 452 kts | 161° |
| 2026-04-27 10:03 | 50.39508 | -0.31863 | 39298 ft | 451 kts | 161° |
| 2026-04-27 10:03 | 50.33644 | -0.28370 | 39301 ft | 450 kts | 161° |
| 2026-04-27 10:04 | 50.27785 | -0.24889 | 39303 ft | 451 kts | 161° |
| 2026-04-27 10:04 | 50.21922 | -0.21415 | 39300 ft | 451 kts | 161° |
| 2026-04-27 10:05 | 50.16062 | -0.17953 | 39295 ft | 450 kts | 161° |
| 2026-04-27 10:05 | 50.10197 | -0.14496 | 39299 ft | 450 kts | 161° |
| 2026-04-27 10:06 | 50.04333 | -0.11048 | 39297 ft | 450 kts | 161° |
| 2026-04-27 10:06 | 49.98472 | -0.07612 | 39294 ft | 450 kts | 161° |
| 2026-04-27 10:07 | 49.92602 | -0.04179 | 39288 ft | 451 kts | 162° |
| 2026-04-27 10:07 | 49.86718 | -0.00747 | 39293 ft | 452 kts | 162° |
| 2026-04-27 10:08 | 49.80836 | 0.02674 | 39275 ft | 451 kts | 162° |
| 2026-04-27 10:08 | 49.74955 | 0.06088 | 39267 ft | 451 kts | 162° |
| 2026-04-27 10:09 | 49.69107 | 0.09472 | 39270 ft | 452 kts | 162° |
| 2026-04-27 10:09 | 49.63215 | 0.12873 | 39261 ft | 452 kts | 162° |
| 2026-04-27 10:10 | 49.57321 | 0.16266 | 39260 ft | 452 kts | 162° |
| 2026-04-27 10:10 | 49.51426 | 0.19652 | 39262 ft | 452 kts | 162° |
| 2026-04-27 10:11 | 49.45517 | 0.23037 | 39266 ft | 453 kts | 162° |
| 2026-04-27 10:11 | 49.39604 | 0.26415 | 39267 ft | 453 kts | 162° |
| 2026-04-27 10:12 | 49.33689 | 0.29785 | 39264 ft | 453 kts | 162° |
| 2026-04-27 10:12 | 49.27680 | 0.32550 | 39277 ft | 451 kts | 168° |
| 2026-04-27 10:13 | 49.21623 | 0.35077 | 39242 ft | 451 kts | 167° |
| 2026-04-27 10:13 | 49.15574 | 0.37644 | 39246 ft | 451 kts | 167° |
| 2026-04-27 10:14 | 49.09526 | 0.40209 | 39244 ft | 451 kts | 167° |
| 2026-04-27 10:14 | 49.03481 | 0.42767 | 39237 ft | 450 kts | 167° |
| 2026-04-27 10:15 | 48.97492 | 0.45295 | 39243 ft | 449 kts | 167° |
| 2026-04-27 10:15 | 48.91471 | 0.47830 | 39243 ft | 449 kts | 168° |
| 2026-04-27 10:16 | 48.85446 | 0.50361 | 39241 ft | 449 kts | 168° |
| 2026-04-27 10:16 | 48.79380 | 0.52888 | 39238 ft | 449 kts | 168° |
| 2026-04-27 10:17 | 48.73336 | 0.55254 | 39235 ft | 449 kts | 168° |
| 2026-04-27 10:17 | 48.67290 | 0.57630 | 39235 ft | 449 kts | 168° |
| 2026-04-27 10:18 | 48.61291 | 0.59983 | 39234 ft | 448 kts | 168° |
| 2026-04-27 10:18 | 48.55267 | 0.62341 | 39226 ft | 447 kts | 169° |
| 2026-04-27 10:19 | 48.49255 | 0.64760 | 39230 ft | 447 kts | 168° |
| 2026-04-27 10:19 | 48.43243 | 0.67202 | 39219 ft | 447 kts | 168° |
| 2026-04-27 10:20 | 48.37246 | 0.69628 | 39222 ft | 446 kts | 168° |
| 2026-04-27 10:20 | 48.31254 | 0.72047 | 39219 ft | 446 kts | 168° |
| 2026-04-27 10:21 | 48.25265 | 0.74451 | 39220 ft | 446 kts | 168° |
| 2026-04-27 10:21 | 48.19270 | 0.76812 | 39217 ft | 445 kts | 169° |
| 2026-04-27 10:22 | 48.13296 | 0.79164 | 39207 ft | 443 kts | 169° |
| 2026-04-27 10:22 | 48.07326 | 0.81508 | 39217 ft | 444 kts | 169° |
| 2026-04-27 10:23 | 48.02364 | 0.83452 | 39212 ft | 443 kts | 169° |
| 2026-04-27 10:23 | 47.96393 | 0.85786 | 39200 ft | 443 kts | 169° |
| 2026-04-27 10:24 | 47.90437 | 0.88110 | 39202 ft | 442 kts | 169° |
| 2026-04-27 10:24 | 47.84484 | 0.90427 | 39205 ft | 442 kts | 169° |
| 2026-04-27 10:25 | 47.78530 | 0.92735 | 39187 ft | 442 kts | 169° |
| 2026-04-27 10:25 | 47.72585 | 0.95036 | 39196 ft | 441 kts | 169° |
| 2026-04-27 10:26 | 47.66643 | 0.97330 | 39196 ft | 441 kts | 169° |
| 2026-04-27 10:26 | 47.60703 | 0.99617 | 39192 ft | 441 kts | 169° |
| 2026-04-27 10:27 | 47.54762 | 1.01899 | 39186 ft | 440 kts | 169° |
| 2026-04-27 10:27 | 47.48834 | 1.04172 | 39186 ft | 440 kts | 169° |
| 2026-04-27 10:28 | 47.42890 | 1.06249 | 39172 ft | 435 kts | 180° |
| 2026-04-27 10:28 | 47.36900 | 1.06238 | 39160 ft | 432 kts | 184° |
| 2026-04-27 10:29 | 47.30937 | 1.06155 | 39192 ft | 431 kts | 185° |
| 2026-04-27 10:29 | 47.24942 | 1.06021 | 39184 ft | 431 kts | 185° |
| 2026-04-27 10:30 | 47.18947 | 1.05882 | 39186 ft | 431 kts | 185° |
| 2026-04-27 10:30 | 47.12953 | 1.05741 | 39176 ft | 430 kts | 185° |
| 2026-04-27 10:31 | 47.06963 | 1.05602 | 39178 ft | 430 kts | 185° |
| 2026-04-27 10:31 | 47.00977 | 1.05408 | 39175 ft | 430 kts | 186° |
| 2026-04-27 10:32 | 46.94996 | 1.05148 | 39171 ft | 430 kts | 186° |
| 2026-04-27 10:32 | 46.89030 | 1.04897 | 39173 ft | 428 kts | 186° |
| 2026-04-27 10:33 | 46.83077 | 1.04647 | 39177 ft | 428 kts | 186° |
| 2026-04-27 10:33 | 46.77125 | 1.04397 | 39175 ft | 428 kts | 186° |
| 2026-04-27 10:34 | 46.71171 | 1.04149 | 39166 ft | 428 kts | 186° |
| 2026-04-27 10:34 | 46.65217 | 1.03900 | 39168 ft | 428 kts | 186° |
| 2026-04-27 10:35 | 46.59264 | 1.03652 | 39165 ft | 428 kts | 186° |
| 2026-04-27 10:35 | 46.53311 | 1.03408 | 39162 ft | 428 kts | 185° |
| 2026-04-27 10:36 | 46.50335 | 1.03827 | 39152 ft | 434 kts | 171° |
| 2026-04-27 10:36 | 46.47430 | 1.04822 | 39169 ft | 436 kts | 172° |
| 2026-04-27 10:36 | 46.41506 | 1.06729 | 39169 ft | 436 kts | 172° |
| 2026-04-27 10:37 | 46.35588 | 1.08695 | 39154 ft | 436 kts | 172° |
| 2026-04-27 10:37 | 46.29672 | 1.10665 | 39165 ft | 436 kts | 172° |
| 2026-04-27 10:38 | 46.23752 | 1.12633 | 39162 ft | 436 kts | 172° |
| 2026-04-27 10:38 | 46.17840 | 1.14594 | 39157 ft | 436 kts | 172° |
| 2026-04-27 10:39 | 46.11885 | 1.16565 | 39151 ft | 436 kts | 172° |
| 2026-04-27 10:39 | 46.05972 | 1.18517 | 39156 ft | 436 kts | 172° |
| 2026-04-27 10:40 | 46.00054 | 1.20467 | 39150 ft | 437 kts | 171° |
| 2026-04-27 10:40 | 45.94160 | 1.22406 | 39152 ft | 437 kts | 171° |
| 2026-04-27 10:41 | 45.88228 | 1.24351 | 39157 ft | 437 kts | 171° |
| 2026-04-27 10:41 | 45.82295 | 1.26293 | 39156 ft | 438 kts | 171° |
| 2026-04-27 10:42 | 45.76356 | 1.28233 | 39146 ft | 438 kts | 171° |
| 2026-04-27 10:42 | 45.70417 | 1.30169 | 39150 ft | 438 kts | 171° |
| 2026-04-27 10:43 | 45.64480 | 1.32099 | 39141 ft | 438 kts | 171° |
| 2026-04-27 10:43 | 45.58539 | 1.34027 | 39140 ft | 438 kts | 171° |
| 2026-04-27 10:44 | 45.52595 | 1.35952 | 39139 ft | 438 kts | 171° |
| 2026-04-27 10:44 | 45.46645 | 1.37874 | 39136 ft | 438 kts | 171° |
| 2026-04-27 10:45 | 45.40696 | 1.39792 | 39139 ft | 438 kts | 171° |
| 2026-04-27 10:45 | 45.34744 | 1.41707 | 39134 ft | 438 kts | 171° |
| 2026-04-27 10:46 | 45.28795 | 1.43617 | 39147 ft | 439 kts | 171° |
| 2026-04-27 10:46 | 45.22842 | 1.45523 | 39145 ft | 438 kts | 171° |
| 2026-04-27 10:47 | 45.16890 | 1.47426 | 39142 ft | 439 kts | 171° |
| 2026-04-27 10:47 | 45.10929 | 1.49327 | 39153 ft | 439 kts | 171° |
| 2026-04-27 10:48 | 45.04965 | 1.51225 | 39155 ft | 439 kts | 171° |
| 2026-04-27 10:48 | 44.99000 | 1.53119 | 39143 ft | 439 kts | 171° |
| 2026-04-27 10:49 | 44.93059 | 1.55002 | 39141 ft | 442 kts | 171° |
| 2026-04-27 10:49 | 44.87056 | 1.56900 | 39138 ft | 442 kts | 171° |
| 2026-04-27 10:50 | 44.81019 | 1.58805 | 39142 ft | 442 kts | 171° |
| 2026-04-27 10:50 | 44.75058 | 1.60682 | 39137 ft | 442 kts | 171° |
| 2026-04-27 10:51 | 44.69059 | 1.62567 | 39136 ft | 442 kts | 171° |
| 2026-04-27 10:51 | 44.63061 | 1.64448 | 39138 ft | 442 kts | 171° |
| 2026-04-27 10:52 | 44.57064 | 1.66324 | 39130 ft | 442 kts | 171° |
| 2026-04-27 10:52 | 44.51054 | 1.68201 | 39142 ft | 443 kts | 171° |
| 2026-04-27 10:53 | 44.42035 | 1.71009 | 39141 ft | 443 kts | 171° |
| 2026-04-27 10:54 | 44.36019 | 1.72878 | 39144 ft | 443 kts | 170° |
| 2026-04-27 10:54 | 44.29986 | 1.74724 | 39140 ft | 443 kts | 173° |
| 2026-04-27 10:55 | 44.23907 | 1.76031 | 39141 ft | 443 kts | 174° |
| 2026-04-27 10:55 | 44.17829 | 1.77390 | 39145 ft | 443 kts | 173° |
| 2026-04-27 10:56 | 44.11742 | 1.78760 | 39137 ft | 443 kts | 173° |
| 2026-04-27 10:56 | 44.05661 | 1.80126 | 39142 ft | 443 kts | 173° |
| 2026-04-27 10:57 | 43.99575 | 1.81492 | 39137 ft | 443 kts | 173° |
| 2026-04-27 10:57 | 43.93470 | 1.82499 | 39152 ft | 441 kts | 180° |
| 2026-04-27 10:58 | 43.87367 | 1.83033 | 39137 ft | 442 kts | 178° |
| 2026-04-27 10:58 | 43.81231 | 1.83641 | 39136 ft | 442 kts | 178° |
| 2026-04-27 10:59 | 43.75084 | 1.84258 | 39143 ft | 443 kts | 178° |
| 2026-04-27 10:59 | 43.68930 | 1.84875 | 39145 ft | 443 kts | 178° |
| 2026-04-27 11:00 | 43.59705 | 1.85798 | 39140 ft | 444 kts | 178° |
| 2026-04-27 11:00 | 43.53538 | 1.86413 | 39140 ft | 445 kts | 178° |
| 2026-04-27 11:01 | 43.47369 | 1.87027 | 39133 ft | 444 kts | 178° |
| 2026-04-27 11:01 | 43.41207 | 1.87639 | 39127 ft | 444 kts | 178° |
| 2026-04-27 11:02 | 43.35049 | 1.88247 | 38756 ft | 442 kts | 178° |
| 2026-04-27 11:02 | 43.31976 | 1.88541 | 37963 ft | 443 kts | 178° |
| 2026-04-27 11:02 | 43.28908 | 1.88834 | 37399 ft | 440 kts | 178° |
| 2026-04-27 11:03 | 43.25883 | 1.89124 | 37016 ft | 433 kts | 178° |
| 2026-04-27 11:03 | 43.22900 | 1.89408 | 36605 ft | 427 kts | 178° |
| 2026-04-27 11:03 | 43.19946 | 1.89691 | 36112 ft | 424 kts | 178° |
| 2026-04-27 11:03 | 43.17012 | 1.89970 | 35586 ft | 422 kts | 178° |
| 2026-04-27 11:04 | 43.14089 | 1.90249 | 35082 ft | 420 kts | 177° |
| 2026-04-27 11:04 | 43.11182 | 1.90526 | 34604 ft | 418 kts | 177° |
| 2026-04-27 11:04 | 43.08288 | 1.90801 | 34134 ft | 415 kts | 177° |
| 2026-04-27 11:04 | 43.05412 | 1.91074 | 33583 ft | 414 kts | 177° |
| 2026-04-27 11:05 | 43.02548 | 1.91345 | 33066 ft | 412 kts | 177° |
| 2026-04-27 11:05 | 42.99699 | 1.91615 | 32602 ft | 408 kts | 177° |
| 2026-04-27 11:05 | 42.96873 | 1.91883 | 32154 ft | 405 kts | 177° |
| 2026-04-27 11:05 | 42.94071 | 1.92149 | 31693 ft | 403 kts | 177° |
| 2026-04-27 11:06 | 42.91284 | 1.92413 | 31247 ft | 400 kts | 177° |
| 2026-04-27 11:06 | 42.88518 | 1.92673 | 30804 ft | 398 kts | 177° |
| 2026-04-27 11:06 | 42.85798 | 1.92930 | 30375 ft | 396 kts | 177° |
| 2026-04-27 11:06 | 42.83021 | 1.93192 | 29885 ft | 394 kts | 177° |
| 2026-04-27 11:07 | 42.80292 | 1.93448 | 29411 ft | 391 kts | 177° |
| 2026-04-27 11:07 | 42.77627 | 1.93699 | 28993 ft | 387 kts | 177° |
| 2026-04-27 11:07 | 42.74953 | 1.93952 | 28586 ft | 384 kts | 177° |
| 2026-04-27 11:07 | 42.72301 | 1.94200 | 28201 ft | 380 kts | 177° |
| 2026-04-27 11:08 | 42.69682 | 1.94447 | 27914 ft | 374 kts | 177° |
| 2026-04-27 11:08 | 42.67108 | 1.94737 | 27562 ft | 370 kts | 172° |
| 2026-04-27 11:08 | 42.64571 | 1.95292 | 27126 ft | 368 kts | 172° |
| 2026-04-27 11:08 | 42.62047 | 1.95819 | 26758 ft | 366 kts | 172° |
| 2026-04-27 11:09 | 42.59540 | 1.96328 | 26409 ft | 363 kts | 172° |
| 2026-04-27 11:09 | 42.57050 | 1.96825 | 26030 ft | 361 kts | 172° |
| 2026-04-27 11:09 | 42.54575 | 1.97316 | 25657 ft | 359 kts | 172° |
| 2026-04-27 11:09 | 42.52107 | 1.97804 | 25287 ft | 357 kts | 172° |
| 2026-04-27 11:10 | 42.49653 | 1.98288 | 24916 ft | 356 kts | 172° |
| 2026-04-27 11:10 | 42.47210 | 1.98770 | 24547 ft | 354 kts | 172° |
| 2026-04-27 11:10 | 42.44775 | 1.99251 | 24180 ft | 353 kts | 172° |
| 2026-04-27 11:10 | 42.42351 | 1.99728 | 23816 ft | 352 kts | 172° |
| 2026-04-27 11:11 | 42.39932 | 2.00204 | 23401 ft | 350 kts | 172° |
| 2026-04-27 11:11 | 42.37527 | 2.00677 | 22996 ft | 348 kts | 172° |
| 2026-04-27 11:11 | 42.35126 | 2.00996 | 22587 ft | 346 kts | 175° |
| 2026-04-27 11:11 | 42.32735 | 2.01278 | 22236 ft | 343 kts | 175° |
| 2026-04-27 11:12 | 42.31167 | 2.01469 | 22019 ft | 341 kts | 175° |
| 2026-04-27 11:12 | 42.28817 | 2.01759 | 21673 ft | 338 kts | 175° |
| 2026-04-27 11:12 | 42.26479 | 2.01992 | 21244 ft | 337 kts | 181° |
| 2026-04-27 11:12 | 42.24159 | 2.01435 | 20557 ft | 344 kts | 201° |
| 2026-04-27 11:13 | 42.21920 | 2.00212 | 19933 ft | 349 kts | 202° |
| 2026-04-27 11:13 | 42.19684 | 1.99015 | 19558 ft | 342 kts | 202° |
| 2026-04-27 11:13 | 42.17494 | 1.97838 | 19216 ft | 334 kts | 202° |
| 2026-04-27 11:13 | 42.15357 | 1.96687 | 18874 ft | 328 kts | 202° |
| 2026-04-27 11:14 | 42.13261 | 1.95558 | 18536 ft | 321 kts | 202° |
| 2026-04-27 11:14 | 42.11203 | 1.94450 | 18169 ft | 315 kts | 202° |
| 2026-04-27 11:14 | 42.09187 | 1.93365 | 17807 ft | 309 kts | 202° |
| 2026-04-27 11:14 | 42.07216 | 1.92305 | 17479 ft | 302 kts | 202° |
| 2026-04-27 11:15 | 42.05284 | 1.91267 | 17163 ft | 296 kts | 202° |
| 2026-04-27 11:15 | 42.03358 | 1.90232 | 16839 ft | 302 kts | 202° |
| 2026-04-27 11:15 | 42.01391 | 1.89177 | 16518 ft | 307 kts | 202° |
| 2026-04-27 11:15 | 41.99402 | 1.88109 | 16196 ft | 308 kts | 202° |
| 2026-04-27 11:16 | 41.97418 | 1.87047 | 15878 ft | 306 kts | 202° |
| 2026-04-27 11:16 | 41.95449 | 1.85992 | 15553 ft | 304 kts | 202° |
| 2026-04-27 11:16 | 41.93489 | 1.84943 | 15242 ft | 302 kts | 202° |
| 2026-04-27 11:16 | 41.91546 | 1.83904 | 14916 ft | 300 kts | 202° |
| 2026-04-27 11:17 | 41.89608 | 1.82867 | 14601 ft | 298 kts | 202° |
| 2026-04-27 11:17 | 41.87687 | 1.81841 | 14282 ft | 297 kts | 202° |
| 2026-04-27 11:17 | 41.85797 | 1.80832 | 13981 ft | 295 kts | 202° |
| 2026-04-27 11:17 | 41.83889 | 1.79814 | 13627 ft | 294 kts | 202° |
| 2026-04-27 11:18 | 41.81992 | 1.78801 | 13290 ft | 293 kts | 202° |
| 2026-04-27 11:18 | 41.80106 | 1.77797 | 12975 ft | 291 kts | 202° |
| 2026-04-27 11:18 | 41.78237 | 1.76801 | 12663 ft | 288 kts | 202° |
| 2026-04-27 11:18 | 41.76380 | 1.75813 | 12362 ft | 286 kts | 202° |
| 2026-04-27 11:19 | 41.74534 | 1.74832 | 12053 ft | 284 kts | 202° |
| 2026-04-27 11:19 | 41.72704 | 1.73859 | 11756 ft | 282 kts | 202° |
| 2026-04-27 11:19 | 41.70886 | 1.72894 | 11453 ft | 280 kts | 202° |
| 2026-04-27 11:19 | 41.69081 | 1.71935 | 11156 ft | 279 kts | 202° |
| 2026-04-27 11:20 | 41.67283 | 1.70980 | 10861 ft | 277 kts | 202° |
| 2026-04-27 11:20 | 41.65497 | 1.70033 | 10567 ft | 276 kts | 202° |
| 2026-04-27 11:20 | 41.63718 | 1.69091 | 10285 ft | 274 kts | 202° |
| 2026-04-27 11:20 | 41.61967 | 1.68164 | 10083 ft | 269 kts | 202° |
| 2026-04-27 11:21 | 41.60233 | 1.67246 | 9781 ft | 267 kts | 202° |
| 2026-04-27 11:21 | 41.58510 | 1.66335 | 9468 ft | 266 kts | 202° |
| 2026-04-27 11:21 | 41.56779 | 1.65419 | 9183 ft | 270 kts | 202° |
| 2026-04-27 11:21 | 41.55016 | 1.64487 | 8892 ft | 274 kts | 202° |
| 2026-04-27 11:22 | 41.53238 | 1.63549 | 8586 ft | 276 kts | 201° |
| 2026-04-27 11:22 | 41.51460 | 1.62613 | 8369 ft | 273 kts | 201° |
| 2026-04-27 11:22 | 41.49692 | 1.61679 | 8104 ft | 274 kts | 201° |
| 2026-04-27 11:22 | 41.47912 | 1.60740 | 7748 ft | 276 kts | 201° |
| 2026-04-27 11:23 | 41.46130 | 1.59801 | 7418 ft | 275 kts | 201° |
| 2026-04-27 11:23 | 41.44375 | 1.58876 | 7103 ft | 274 kts | 201° |
| 2026-04-27 11:23 | 41.42603 | 1.57944 | 6810 ft | 273 kts | 201° |
| 2026-04-27 11:23 | 41.40838 | 1.57016 | 6503 ft | 272 kts | 201° |
| 2026-04-27 11:24 | 41.39074 | 1.56089 | 6124 ft | 273 kts | 201° |
| 2026-04-27 11:24 | 41.37303 | 1.55158 | 5786 ft | 273 kts | 201° |
| 2026-04-27 11:24 | 41.35535 | 1.54231 | 5462 ft | 273 kts | 201° |
| 2026-04-27 11:24 | 41.33769 | 1.53304 | 5154 ft | 272 kts | 201° |
| 2026-04-27 11:25 | 41.32015 | 1.52382 | 4849 ft | 271 kts | 200° |
| 2026-04-27 11:25 | 41.30261 | 1.51464 | 4525 ft | 270 kts | 200° |
| 2026-04-27 11:25 | 41.28525 | 1.50555 | 4313 ft | 265 kts | 200° |
| 2026-04-27 11:25 | 41.26829 | 1.49668 | 4178 ft | 260 kts | 200° |
| 2026-04-27 11:26 | 41.25169 | 1.48792 | 4055 ft | 252 kts | 202° |
| 2026-04-27 11:26 | 41.23805 | 1.47447 | 4094 ft | 241 kts | 229° |
| 2026-04-27 11:26 | 41.23045 | 1.45527 | 4034 ft | 230 kts | 249° |
| 2026-04-27 11:26 | 41.22524 | 1.43601 | 4087 ft | 216 kts | 249° |
| 2026-04-27 11:27 | 41.21995 | 1.41732 | 3826 ft | 216 kts | 248° |
| 2026-04-27 11:27 | 41.21462 | 1.39870 | 3549 ft | 215 kts | 248° |
| 2026-04-27 11:27 | 41.20925 | 1.38019 | 3282 ft | 214 kts | 248° |
| 2026-04-27 11:27 | 41.20392 | 1.36192 | 3019 ft | 210 kts | 248° |
| 2026-04-27 11:28 | 41.19868 | 1.34390 | 2728 ft | 208 kts | 248° |
| 2026-04-27 11:28 | 41.19354 | 1.32615 | 2480 ft | 204 kts | 248° |
| 2026-04-27 11:28 | 41.18842 | 1.30866 | 2197 ft | 202 kts | 248° |
| 2026-04-27 11:28 | 41.18342 | 1.29130 | 1956 ft | 202 kts | 248° |
| 2026-04-27 11:29 | 41.17840 | 1.27397 | 1678 ft | 197 kts | 248° |
| 2026-04-27 11:29 | 41.17376 | 1.25795 | 1428 ft | 177 kts | 248° |
| 2026-04-27 11:29 | 41.16958 | 1.24356 | 1210 ft | 156 kts | 247° |
| 2026-04-27 11:29 | 41.16579 | 1.23058 | 1011 ft | 149 kts | 247° |
| 2026-04-27 11:30 | 41.16214 | 1.21788 | 804 ft | 146 kts | 246° |
| 2026-04-27 11:30 | 41.15851 | 1.20543 | 618 ft | 145 kts | 246° |
| 2026-04-27 11:30 | 41.15489 | 1.19306 | 426 ft | 144 kts | 247° |
| 2026-04-27 11:30 | 41.15134 | 1.18066 | 256 ft | 142 kts | 247° |
| 2026-04-27 11:31 | 41.14815 | 1.16976 | 244 ft | 108 kts | 249° |
| 2026-04-27 11:31 | 41.14587 | 1.16197 | 244 ft | 67 kts | 249° |
| 2026-04-27 11:31 | 41.14493 | 1.15872 | 244 ft | 29 kts | 249° |
| 2026-04-27 11:31 | 41.14438 | 1.15689 | 244 ft | 9 kts | 249° |
| 2026-04-27 11:32 | 41.14457 | 1.15610 | 244 ft | 11 kts | 330° |
| 2026-04-27 11:32 | 41.14529 | 1.15571 | 244 ft | 12 kts | 339° |
| 2026-04-27 11:32 | 41.14584 | 1.15538 | 244 ft | 7 kts | 325° |
| 2026-04-27 11:32 | 41.14628 | 1.15510 | 244 ft | 2 kts | 339° |
| 2026-04-27 11:33 | 41.14643 | 1.15503 | 244 ft | 1 kts | 339° |
| 2026-04-27 11:33 | 41.14646 | 1.15502 | 244 ft | 0 kts | 339° |